createdAt,value
2019-03-04T00:01:12.840Z,66.84
2019-03-04T00:03:44.218Z,66.66
2019-03-04T00:06:15.550Z,66.56
2019-03-04T00:08:46.871Z,66.49
2019-03-04T00:11:20.968Z,66.38
2019-03-04T00:13:52.303Z,66.28
2019-03-04T00:16:42.575Z,66.31
2019-03-04T00:19:13.841Z,66.04
2019-03-04T00:21:45.221Z,65.90
2019-03-04T00:24:16.539Z,65.57
2019-03-04T00:26:47.821Z,65.85
2019-03-04T00:29:19.063Z,65.86
2019-03-04T00:31:50.422Z,65.30
2019-03-04T00:34:26.143Z,65.78
2019-03-04T00:36:57.569Z,66.43
2019-03-04T00:39:28.868Z,66.66
2019-03-04T00:42:00.144Z,66.02
2019-03-04T00:44:31.726Z,66.36
2019-03-04T00:47:02.964Z,66.68
2019-03-04T00:49:36.009Z,66.60
2019-03-04T00:52:07.273Z,66.36
2019-03-04T00:54:38.505Z,66.90
2019-03-04T00:57:09.801Z,66.92
2019-03-04T00:59:41.012Z,66.69
2019-03-04T01:02:12.301Z,66.67
2019-03-04T01:04:43.594Z,67.11
2019-03-04T01:07:14.845Z,67.29
2019-03-04T01:09:46.056Z,66.73
2019-03-04T01:12:17.449Z,67.16
2019-03-04T01:14:48.739Z,66.91
2019-03-04T01:17:20.045Z,67.05
2019-03-04T01:19:51.326Z,66.65
2019-03-04T01:23:00.540Z,66.21
2019-03-04T01:25:31.882Z,66.58
2019-03-04T01:28:03.073Z,65.31
2019-03-04T01:30:34.337Z,65.65
2019-03-04T01:33:05.649Z,65.31
2019-03-04T01:35:36.918Z,65.01
2019-03-04T01:38:08.225Z,65.51
2019-03-04T01:40:39.573Z,64.84
2019-03-04T01:43:10.825Z,64.65
2019-03-04T01:45:42.244Z,64.31
2019-03-04T01:48:13.580Z,64.52
2019-03-04T01:50:44.858Z,64.36
2019-03-04T01:53:16.068Z,64.46
2019-03-04T01:55:47.340Z,64.71
2019-03-04T01:58:18.620Z,64.12
2019-03-04T02:00:49.898Z,64.06
2019-03-04T02:03:21.166Z,63.74
2019-03-04T02:05:52.483Z,63.09
2019-03-04T02:08:23.725Z,63.21
2019-03-04T02:10:55.029Z,63.35
2019-03-04T02:13:26.169Z,63.45
2019-03-04T02:15:57.366Z,63.65
2019-03-04T02:18:28.669Z,63.17
2019-03-04T02:20:59.930Z,63.37
2019-03-04T02:23:31.229Z,63.75
2019-03-04T02:26:29.152Z,64.13
2019-03-04T02:29:19.463Z,64.06
2019-03-04T02:32:09.713Z,64.49
2019-03-04T02:34:41.026Z,64.50
2019-03-04T02:37:12.223Z,64.84
2019-03-04T02:39:43.518Z,64.37
2019-03-04T02:42:14.695Z,64.53
2019-03-04T02:44:46.007Z,64.68
2019-03-04T02:47:17.228Z,64.91
2019-03-04T02:49:48.553Z,64.92
2019-03-04T02:52:19.705Z,64.55
2019-03-04T02:54:50.997Z,64.73
2019-03-04T02:57:22.292Z,64.58
2019-03-04T02:59:53.497Z,65.03
2019-03-04T03:02:24.765Z,65.06
2019-03-04T03:04:55.998Z,64.60
2019-03-04T03:07:27.309Z,64.86
2019-03-04T03:09:58.614Z,64.71
2019-03-04T03:12:29.937Z,64.85
2019-03-04T03:15:01.170Z,64.87
2019-03-04T03:17:32.454Z,64.51
2019-03-04T03:20:03.657Z,64.33
2019-03-04T03:22:35.000Z,64.45
2019-03-04T03:25:06.473Z,64.54
2019-03-04T03:27:37.785Z,64.63
2019-03-04T03:30:11.137Z,64.06
2019-03-04T03:32:42.643Z,63.86
2019-03-04T03:35:13.940Z,63.58
2019-03-04T03:38:04.138Z,63.66
2019-03-04T03:40:35.384Z,64.01
2019-03-04T03:43:06.625Z,63.94
2019-03-04T03:45:37.892Z,64.16
2019-03-04T03:48:09.206Z,63.51
2019-03-04T03:50:40.505Z,64.06
2019-03-04T03:53:11.731Z,63.06
2019-03-04T03:55:42.928Z,62.65
2019-03-04T03:58:14.247Z,63.00
2019-03-04T04:00:45.488Z,62.95
2019-03-04T04:03:16.743Z,61.41
2019-03-04T04:05:49.729Z,60.38
2019-03-04T04:08:21.029Z,60.31
2019-03-04T04:10:52.429Z,60.12
2019-03-04T04:13:23.762Z,59.86
2019-03-04T04:15:54.948Z,59.00
2019-03-04T04:18:26.265Z,58.54
2019-03-04T04:20:57.555Z,58.21
2019-03-04T04:23:29.618Z,57.78
2019-03-04T04:26:00.985Z,57.98
2019-03-04T04:28:32.333Z,57.52
2019-03-04T04:31:03.683Z,58.19
2019-03-04T04:33:36.473Z,58.34
2019-03-04T04:36:07.996Z,58.19
2019-03-04T04:38:39.269Z,57.22
2019-03-04T04:41:10.589Z,57.11
2019-03-04T04:44:00.922Z,57.15
2019-03-04T04:47:02.527Z,57.52
2019-03-04T04:49:38.121Z,55.85
2019-03-04T04:52:09.328Z,55.11
2019-03-04T04:54:40.708Z,55.59
2019-03-04T04:57:12.129Z,55.18
2019-03-04T04:59:43.569Z,54.80
2019-03-04T05:02:14.812Z,54.61
2019-03-04T05:04:46.220Z,54.81
2019-03-04T05:07:17.778Z,55.15
2019-03-04T05:09:49.055Z,54.93
2019-03-04T05:12:20.312Z,54.72
2019-03-04T05:14:51.662Z,54.94
2019-03-04T05:17:22.862Z,54.40
2019-03-04T05:19:54.129Z,54.61
2019-03-04T05:22:25.237Z,54.62
2019-03-04T05:24:56.477Z,54.49
2019-03-04T05:27:27.636Z,54.24
2019-03-04T05:29:58.929Z,53.90
2019-03-04T05:32:30.193Z,54.51
2019-03-04T05:35:01.522Z,54.45
2019-03-04T05:37:32.780Z,54.79
2019-03-04T05:40:08.982Z,54.97
2019-03-04T05:42:40.394Z,54.15
2019-03-04T05:45:14.144Z,54.99
2019-03-04T05:47:45.374Z,54.80
2019-03-04T05:50:17.643Z,54.67
2019-03-04T05:53:07.901Z,54.29
2019-03-04T05:55:39.122Z,55.10
2019-03-04T05:58:10.443Z,56.52
2019-03-04T06:00:43.137Z,61.17
2019-03-04T06:03:14.925Z,64.01
2019-03-04T06:05:46.192Z,66.80
2019-03-04T06:08:17.548Z,67.44
2019-03-04T06:10:48.779Z,70.07
2019-03-04T06:13:20.222Z,73.10
2019-03-04T06:15:51.422Z,78.98
2019-03-04T06:18:22.673Z,82.41
2019-03-04T06:20:53.986Z,83.17
2019-03-04T06:23:25.126Z,82.98
2019-03-04T06:25:57.185Z,82.63
2019-03-04T06:28:28.450Z,82.55
2019-03-04T06:30:59.739Z,82.92
2019-03-04T06:33:30.898Z,83.12
2019-03-04T06:36:02.117Z,82.47
2019-03-04T06:38:33.384Z,81.65
2019-03-04T06:41:04.628Z,81.24
2019-03-04T06:43:35.936Z,81.17
2019-03-04T06:46:07.174Z,78.95
2019-03-04T06:48:38.570Z,80.41
2019-03-04T06:51:11.450Z,80.09
2019-03-04T06:54:10.381Z,79.20
2019-03-04T06:56:51.423Z,77.97
2019-03-04T07:00:25.701Z,78.12
2019-03-04T07:02:57.126Z,78.58
2019-03-04T07:05:49.139Z,77.19
2019-03-04T07:09:02.578Z,78.43
2019-03-04T07:11:34.148Z,77.96
2019-03-04T07:14:06.140Z,76.97
2019-03-04T07:16:37.382Z,76.69
2019-03-04T07:19:11.500Z,76.06
2019-03-04T07:21:42.723Z,74.47
2019-03-04T07:24:13.887Z,75.91
2019-03-04T07:26:45.168Z,74.97
2019-03-04T07:29:16.330Z,74.36
2019-03-04T07:31:47.565Z,73.23
2019-03-04T07:34:18.722Z,72.83
2019-03-04T07:36:56.602Z,72.30
2019-03-04T07:39:27.812Z,71.51
2019-03-04T07:42:00.684Z,71.66
2019-03-04T07:44:32.032Z,70.88
2019-03-04T07:47:05.999Z,69.68
2019-03-04T07:49:37.254Z,68.59
2019-03-04T07:52:08.474Z,67.97
2019-03-04T07:54:39.714Z,68.86
2019-03-04T07:57:11.002Z,68.45
2019-03-04T07:59:42.239Z,68.82
2019-03-04T08:02:13.398Z,68.92
2019-03-04T08:04:44.799Z,67.57
2019-03-04T08:07:38.979Z,67.40
2019-03-04T08:11:11.250Z,67.44
2019-03-04T08:13:47.901Z,67.58
2019-03-04T08:16:19.198Z,66.59
2019-03-04T08:18:50.501Z,66.50
2019-03-04T08:21:21.826Z,66.00
2019-03-04T08:23:52.994Z,66.86
2019-03-04T08:26:24.942Z,66.30
2019-03-04T08:28:56.234Z,66.28
2019-03-04T08:31:27.457Z,66.69
2019-03-04T08:33:58.669Z,66.99
2019-03-04T08:36:29.914Z,66.16
2019-03-04T08:39:01.178Z,67.04
2019-03-04T08:41:32.453Z,65.20
2019-03-04T08:44:03.743Z,62.51
2019-03-04T08:46:34.993Z,61.52
2019-03-04T08:49:06.372Z,59.63
2019-03-04T08:51:37.588Z,57.31
2019-03-04T08:54:08.888Z,55.51
2019-03-04T08:56:40.121Z,56.41
2019-03-04T08:59:11.373Z,54.67
2019-03-04T09:01:42.704Z,54.27
2019-03-04T09:04:13.980Z,52.97
2019-03-04T09:06:45.233Z,52.80
2019-03-04T09:09:16.424Z,52.31
2019-03-04T09:12:06.675Z,52.80
2019-03-04T09:14:56.924Z,51.73
2019-03-04T09:17:28.310Z,52.16
2019-03-04T09:19:59.644Z,52.81
2019-03-04T09:22:31.025Z,53.60
2019-03-04T09:25:02.239Z,53.65
2019-03-04T09:27:33.526Z,54.68
2019-03-04T09:30:06.679Z,54.83
2019-03-04T09:32:38.001Z,54.73
2019-03-04T09:35:10.514Z,55.79
2019-03-04T09:37:41.974Z,56.90
2019-03-04T09:40:15.846Z,59.33
2019-03-04T09:42:47.686Z,62.21
2019-03-04T09:45:19.239Z,64.35
2019-03-04T09:47:50.906Z,65.95
2019-03-04T09:50:30.724Z,68.55
2019-03-04T09:53:19.564Z,69.05
2019-03-04T09:55:50.888Z,70.11
2019-03-04T09:58:22.056Z,73.02
2019-03-04T10:01:39.016Z,73.18
2019-03-04T10:04:55.668Z,75.60
2019-03-04T10:08:32.929Z,76.27
2019-03-04T10:11:54.288Z,76.41
2019-03-04T10:15:14.547Z,76.53
2019-03-04T10:19:03.952Z,74.01
2019-03-04T10:22:32.973Z,73.08
2019-03-04T10:25:58.219Z,72.42
2019-03-04T10:29:03.019Z,72.11
2019-03-04T10:31:53.458Z,70.62
2019-03-04T10:35:16.522Z,69.33
2019-03-04T10:38:33.918Z,69.01
2019-03-04T10:42:05.836Z,68.42
2019-03-04T10:45:33.147Z,69.22
2019-03-04T10:48:04.504Z,68.43
2019-03-04T10:50:36.137Z,68.63
2019-03-04T10:53:07.430Z,66.77
2019-03-04T10:55:41.899Z,67.81
2019-03-04T10:58:11.587Z,66.86
2019-03-04T11:00:43.189Z,68.79
2019-03-04T11:03:14.460Z,69.93
2019-03-04T11:05:45.850Z,72.25
2019-03-04T11:08:17.117Z,74.67
2019-03-04T11:10:48.386Z,77.67
2019-03-04T11:13:20.195Z,77.65
2019-03-04T11:15:51.447Z,78.97
2019-03-04T11:18:22.667Z,80.13
2019-03-04T11:20:53.869Z,81.19
2019-03-04T11:23:29.430Z,81.84
2019-03-04T11:26:01.060Z,82.12
2019-03-04T11:28:36.593Z,82.22
2019-03-04T11:31:08.033Z,82.01
2019-03-04T11:33:40.749Z,80.64
2019-03-04T11:36:12.011Z,80.55
2019-03-04T11:38:46.839Z,79.13
2019-03-04T11:41:22.026Z,79.57
2019-03-04T11:43:53.706Z,79.48
2019-03-04T11:46:25.626Z,79.96
2019-03-04T11:48:56.945Z,79.40
2019-03-04T11:51:28.277Z,79.08
2019-03-04T11:53:59.769Z,77.69
2019-03-04T11:56:31.198Z,76.24
2019-03-04T11:59:02.577Z,74.43
2019-03-04T12:01:39.344Z,71.86
2019-03-04T12:04:10.604Z,72.30
2019-03-04T12:06:43.200Z,72.29
2019-03-04T12:09:16.586Z,71.80
2019-03-04T12:11:53.752Z,70.39
2019-03-04T12:14:25.019Z,69.87
2019-03-04T12:16:56.342Z,71.77
2019-03-04T12:19:28.851Z,72.80
2019-03-04T12:22:01.758Z,70.94
2019-03-04T12:24:33.137Z,71.33
2019-03-04T12:27:06.766Z,72.71
2019-03-04T12:29:37.737Z,72.60
2019-03-04T12:32:12.242Z,71.28
2019-03-04T12:35:25.460Z,69.65
2019-03-04T12:37:59.781Z,69.47
2019-03-04T12:40:34.308Z,70.42
2019-03-04T12:43:05.869Z,69.27
2019-03-04T12:45:37.370Z,68.37
2019-03-04T12:48:21.153Z,67.63
2019-03-04T12:50:52.515Z,68.40
2019-03-04T12:53:24.134Z,66.34
2019-03-04T12:55:55.517Z,65.20
2019-03-04T12:58:26.970Z,67.33
2019-03-04T13:00:58.390Z,66.18
2019-03-04T13:03:34.902Z,65.78
2019-03-04T13:06:06.210Z,66.07
2019-03-04T13:08:37.472Z,67.29
2019-03-04T13:11:08.840Z,66.94
2019-03-04T13:13:40.153Z,65.70
2019-03-04T13:16:11.459Z,65.62
2019-03-04T13:18:42.798Z,67.03
2019-03-04T13:21:14.063Z,67.49
2019-03-04T13:23:45.831Z,68.32
2019-03-04T13:26:23.417Z,69.13
2019-03-04T13:28:57.819Z,70.25
2019-03-04T13:31:29.287Z,70.30
2019-03-04T13:34:00.912Z,71.58
2019-03-04T13:36:32.518Z,73.59
2019-03-04T13:39:05.089Z,73.96
2019-03-04T13:41:38.181Z,73.93
2019-03-04T13:44:09.620Z,72.55
2019-03-04T13:46:40.850Z,71.54
2019-03-04T13:49:13.947Z,70.49
2019-03-04T13:51:45.366Z,69.87
2019-03-04T13:54:16.494Z,71.26
2019-03-04T13:56:47.929Z,69.95
2019-03-04T13:59:19.154Z,69.33
2019-03-04T14:01:50.847Z,68.64
2019-03-04T14:04:24.176Z,67.09
2019-03-04T14:06:58.628Z,67.08
2019-03-04T14:09:29.878Z,66.10
2019-03-04T14:12:01.131Z,67.82
2019-03-04T14:14:32.528Z,66.31
2019-03-04T14:17:06.822Z,67.11
2019-03-04T14:19:41.177Z,67.75
2019-03-04T14:22:12.576Z,66.64
2019-03-04T14:24:44.039Z,64.37
2019-03-04T14:27:15.365Z,63.81
2019-03-04T14:29:46.685Z,63.24
2019-03-04T14:32:27.062Z,60.44
2019-03-04T14:34:59.598Z,59.09
2019-03-04T14:37:31.085Z,57.00
2019-03-04T14:40:02.370Z,56.90
2019-03-04T14:42:33.708Z,54.97
2019-03-04T14:45:06.293Z,54.70
2019-03-04T14:47:40.383Z,55.30
2019-03-04T14:50:14.585Z,54.59
2019-03-04T14:52:45.968Z,54.96
2019-03-04T14:55:53.418Z,53.82
2019-03-04T14:58:24.676Z,53.71
2019-03-04T15:00:55.993Z,54.93
2019-03-04T15:03:27.314Z,52.98
2019-03-04T15:06:06.528Z,53.38
2019-03-04T15:08:31.471Z,53.34
2019-03-04T15:11:02.712Z,53.68
2019-03-04T15:13:34.025Z,53.66
2019-03-04T15:16:05.416Z,55.51
2019-03-04T15:18:36.701Z,56.04
2019-03-04T15:21:09.453Z,55.80
2019-03-04T15:23:40.703Z,55.51
2019-03-04T15:26:12.056Z,56.27
2019-03-04T15:28:43.286Z,55.02
2019-03-04T15:31:14.646Z,56.97
2019-03-04T15:33:45.921Z,55.43
2019-03-04T15:36:17.241Z,56.05
2019-03-04T15:38:48.465Z,56.28
2019-03-04T15:41:19.821Z,56.06
2019-03-04T15:43:51.097Z,55.60
2019-03-04T15:46:22.392Z,55.77
2019-03-04T15:48:53.663Z,55.78
2019-03-04T15:51:24.984Z,55.87
2019-03-04T15:53:56.276Z,55.97
2019-03-04T15:56:27.616Z,56.78
2019-03-04T15:58:58.989Z,56.01
2019-03-04T16:01:30.220Z,56.76
2019-03-04T16:04:01.333Z,56.97
2019-03-04T16:06:32.629Z,55.46
2019-03-04T16:09:05.499Z,56.29
2019-03-04T16:11:37.057Z,57.71
2019-03-04T16:14:08.337Z,58.49
2019-03-04T16:16:39.671Z,57.14
2019-03-04T16:19:10.979Z,56.53
2019-03-04T16:21:42.262Z,57.06
2019-03-04T16:24:13.530Z,57.66
2019-03-04T16:26:48.053Z,57.79
2019-03-04T16:29:19.268Z,57.59
2019-03-04T16:31:50.525Z,57.32
2019-03-04T16:34:21.864Z,58.80
2019-03-04T16:36:53.261Z,57.57
2019-03-04T16:39:24.756Z,57.48
2019-03-04T16:41:56.025Z,57.87
2019-03-04T16:44:27.640Z,58.16
2019-03-04T16:46:58.842Z,57.28
2019-03-04T16:49:30.167Z,57.96
2019-03-04T16:52:01.951Z,57.38
2019-03-04T16:54:33.381Z,56.99
2019-03-04T16:57:12.966Z,56.99
2019-03-04T16:59:44.269Z,55.65
2019-03-04T17:02:34.512Z,55.91
2019-03-04T17:05:06.481Z,55.13
2019-03-04T17:07:37.830Z,55.96
2019-03-04T17:10:11.145Z,55.71
2019-03-04T17:12:42.536Z,55.39
2019-03-04T17:15:17.212Z,55.98
2019-03-04T17:17:51.901Z,56.92
2019-03-04T17:20:23.631Z,56.33
2019-03-04T17:22:54.936Z,56.20
2019-03-04T17:25:26.411Z,56.77
2019-03-04T17:27:57.837Z,56.49
2019-03-04T17:30:29.350Z,57.38
2019-03-04T17:33:00.702Z,57.09
2019-03-04T17:35:34.266Z,58.37
2019-03-04T17:38:05.436Z,58.46
2019-03-04T17:40:36.797Z,58.27
2019-03-04T17:43:08.238Z,57.79
2019-03-04T17:45:39.558Z,58.66
2019-03-04T17:48:11.136Z,58.66
2019-03-04T17:50:42.312Z,58.51
2019-03-04T17:53:13.708Z,59.53
2019-03-04T17:55:45.866Z,59.31
2019-03-04T17:58:20.235Z,60.07
2019-03-04T18:00:55.427Z,59.94
2019-03-04T18:03:26.646Z,60.25
2019-03-04T18:06:00.734Z,61.07
2019-03-04T18:08:50.962Z,61.05
2019-03-04T18:11:22.222Z,61.38
2019-03-04T18:13:53.363Z,62.46
2019-03-04T18:16:24.802Z,61.02
2019-03-04T18:18:56.071Z,60.54
2019-03-04T18:21:30.284Z,59.48
2019-03-04T18:24:01.533Z,59.87
2019-03-04T18:26:48.217Z,59.23
2019-03-04T18:30:11.830Z,58.65
2019-03-04T18:33:49.671Z,58.35
2019-03-04T18:37:26.187Z,59.43
2019-03-04T18:40:41.014Z,58.70
2019-03-04T18:43:56.387Z,58.95
2019-03-04T18:47:26.296Z,59.23
2019-03-04T18:49:57.605Z,58.83
2019-03-04T18:52:28.810Z,58.87
2019-03-04T18:55:00.285Z,60.22
2019-03-04T18:57:31.763Z,58.86
2019-03-04T19:00:03.024Z,58.58
2019-03-04T19:02:34.359Z,59.89
2019-03-04T19:05:09.239Z,57.92
2019-03-04T19:07:40.630Z,57.67
2019-03-04T19:10:12.411Z,57.77
2019-03-04T19:12:43.632Z,57.99
2019-03-04T19:15:15.314Z,58.49
2019-03-04T19:17:46.462Z,58.62
2019-03-04T19:20:17.955Z,58.12
2019-03-04T19:23:01.607Z,58.91
2019-03-04T19:25:32.933Z,58.49
2019-03-04T19:28:06.810Z,59.45
2019-03-04T19:30:38.182Z,58.99
2019-03-04T19:33:09.458Z,59.96
2019-03-04T19:35:40.845Z,60.53
2019-03-04T19:38:12.144Z,61.49
2019-03-04T19:40:43.326Z,61.50
2019-03-04T19:43:14.596Z,61.67
2019-03-04T19:45:46.202Z,61.96
2019-03-04T19:48:17.367Z,61.72
2019-03-04T19:50:48.513Z,61.92
2019-03-04T19:53:19.778Z,62.00
2019-03-04T19:55:51.049Z,62.29
2019-03-04T19:58:22.442Z,63.23
2019-03-04T20:00:53.675Z,63.03
2019-03-04T20:03:24.939Z,63.87
2019-03-04T20:05:56.116Z,63.65
2019-03-04T20:08:27.433Z,63.56
2019-03-04T20:10:58.740Z,63.87
2019-03-04T20:13:30.070Z,64.50
2019-03-04T20:16:01.335Z,64.54
2019-03-04T20:18:32.721Z,64.66
2019-03-04T20:21:04.158Z,63.97
2019-03-04T20:23:35.449Z,63.75
2019-03-04T20:26:06.963Z,63.81
2019-03-04T20:28:38.241Z,63.27
2019-03-04T20:31:10.703Z,63.66
2019-03-04T20:33:42.028Z,63.36
2019-03-04T20:36:13.285Z,63.70
2019-03-04T20:38:47.989Z,63.19
2019-03-04T20:41:19.334Z,63.30
2019-03-04T20:43:50.654Z,63.33
2019-03-04T20:46:21.824Z,62.76
2019-03-04T20:48:53.176Z,62.96
2019-03-04T20:51:24.718Z,63.25
2019-03-04T20:53:55.977Z,63.12
2019-03-04T20:56:27.211Z,63.12
2019-03-04T20:58:58.465Z,63.21
2019-03-04T21:01:30.057Z,63.31
2019-03-04T21:04:01.529Z,62.87
2019-03-04T21:06:33.158Z,62.96
2019-03-04T21:09:05.857Z,63.29
2019-03-04T21:11:37.118Z,63.81
2019-03-04T21:14:08.343Z,63.58
2019-03-04T21:16:39.632Z,63.70
2019-03-04T21:19:11.032Z,65.86
2019-03-04T21:21:42.437Z,68.12
2019-03-04T21:24:13.947Z,69.87
2019-03-04T21:27:06.088Z,73.55
2019-03-04T21:30:43.109Z,75.74
2019-03-04T21:33:37.837Z,77.27
2019-03-04T21:36:32.831Z,78.73
2019-03-04T21:39:05.371Z,79.35
2019-03-04T21:41:53.082Z,79.77
2019-03-04T21:45:12.402Z,80.51
2019-03-04T21:47:52.345Z,80.72
2019-03-04T21:50:39.561Z,80.79
2019-03-04T21:53:20.005Z,80.68
2019-03-04T21:56:54.453Z,81.06
2019-03-04T21:59:25.708Z,81.02
2019-03-04T22:02:13.784Z,81.19
2019-03-04T22:04:45.207Z,81.03
2019-03-04T22:07:18.107Z,80.63
2019-03-04T22:09:49.406Z,79.92
2019-03-04T22:12:20.610Z,79.95
2019-03-04T22:15:00.119Z,80.02
2019-03-04T22:17:31.501Z,79.63
2019-03-04T22:20:02.619Z,80.05
2019-03-04T22:22:37.234Z,80.29
2019-03-04T22:25:09.763Z,80.13
2019-03-04T22:27:41.105Z,79.84
2019-03-04T22:30:15.616Z,80.01
2019-03-04T22:32:50.209Z,80.27
2019-03-04T22:35:21.724Z,79.76
2019-03-04T22:37:54.409Z,80.75
2019-03-04T22:40:25.901Z,79.98
2019-03-04T22:42:57.134Z,79.13
2019-03-04T22:45:28.466Z,78.98
2019-03-04T22:47:59.543Z,79.18
2019-03-04T22:50:30.804Z,79.10
2019-03-04T22:53:02.090Z,78.90
2019-03-04T22:55:36.628Z,79.24
2019-03-04T22:58:07.838Z,78.85
2019-03-04T23:01:38.096Z,78.75
2019-03-04T23:04:41.015Z,78.10
2019-03-04T23:07:34.169Z,77.80
2019-03-04T23:10:40.868Z,77.26
2019-03-04T23:13:58.329Z,77.42
2019-03-04T23:16:32.715Z,77.58
2019-03-04T23:19:03.881Z,77.12
2019-03-04T23:21:35.056Z,77.03
2019-03-04T23:24:06.236Z,76.82
2019-03-04T23:26:37.459Z,76.45
2019-03-04T23:29:08.660Z,76.01
2019-03-04T23:31:39.925Z,75.71
2019-03-04T23:34:11.189Z,75.69
2019-03-04T23:36:42.408Z,75.37
2019-03-04T23:39:14.165Z,75.26
2019-03-04T23:42:04.327Z,74.90
2019-03-04T23:44:35.570Z,74.80
2019-03-04T23:47:06.742Z,74.75
2019-03-04T23:49:38.027Z,75.68
2019-03-04T23:52:09.256Z,74.13
2019-03-04T23:54:40.462Z,74.22
2019-03-04T23:57:11.614Z,74.47
2019-03-04T23:59:42.855Z,74.25
